Beechville, Illinois
Current Conditions -  °F | °C
As of 7:54 AM on Friday 28 Nov 2014 (Local Time) from KSET Reporting Station
Haze Haze  
Wind Chill: 19°   Ceiling: Unl
Heat Index: 27°   Visibility: 5mi
Dew Point: 24°   Wind: 7mph
Humidity: 89%   Direction: 120°ESE
Pressure: 30.22"   Gusts: NA
Location:  39.0922°N, 90.6653°W
Report Text: KSET 281354Z AUTO 12006KT 5SM BR CLR M03/M04 A3022 RMK AO2 SLP239 T10281044
Loading
Personal Weather Stations






























Interactive Weather Map New forecast layout! Learn more

10-Day Weather Forecast

Advertisements
Track Severe Weather on mobile